Time;durP1;ratioP1;P1;durP2;ratioP2;P2;SDS_P1;SDS_P2;PMS_P1;PMS_P2;Temp;Humidity;BMP_temperature;BMP_pressure;BME280_temperature;BME280_humidity;BME280_pressure;Samples;Min_cycle;Max_cycle;Signal;HPM_P1;HPM_P2
2022/07/06 00:01:03;;;;;;;10.30;8.90;;;;;;;22.50;58.72;97063.21;110377;1247;60556;-80
2022/07/06 00:03:32;;;;;;;;;;;;;;;22.45;58.90;97066.89;110189;1247;71548;-81
2022/07/06 00:06:02;;;;;;;10.60;9.40;;;;;;;22.35;59.14;97066.02;110277;1247;68446;-85
2022/07/06 00:08:31;;;;;;;10.30;9.10;;;;;;;22.32;59.22;97071.16;109862;1250;69477;-79
2022/07/06 00:11:00;;;;;;;;;;;;;;;22.22;59.49;97062.52;109926;1247;60519;-78
2022/07/06 00:13:30;;;;;;;12.30;9.30;;;;;;;22.13;59.57;97055.69;110251;1246;60450;-80
2022/07/06 00:16:01;;;;;;;9.40;8.40;;;;;;;22.08;59.87;97054.48;110315;1247;72229;-73
2022/07/06 00:18:30;;;;;;;10.70;8.70;;;;;;;22.05;59.87;97055.06;110251;1247;67630;-80
2022/07/06 00:21:01;;;;;;;10.00;8.40;;;;;;;22.00;60.13;97050.68;110282;1247;68570;-79
2022/07/06 00:23:32;;;;;;;12.20;8.80;;;;;;;21.97;60.06;97050.01;110217;1247;60437;-83
2022/07/06 00:26:03;;;;;;;9.70;8.70;;;;;;;21.94;60.26;97049.28;110138;1247;60516;-78
2022/07/06 00:28:33;;;;;;;9.30;8.40;;;;;;;21.89;60.64;97046.21;110002;1248;72327;-78
2022/07/06 00:31:05;;;;;;;10.70;8.40;;;;;;;21.85;60.80;97046.05;109950;1247;68399;-81
2022/07/06 00:33:36;;;;;;;10.30;8.90;;;;;;;21.82;60.76;97048.09;110112;1247;69211;-76
2022/07/06 00:36:09;;;;;;;10.60;8.60;;;;;;;21.76;61.28;97044.79;110073;1248;60563;-80
2022/07/06 00:38:41;;;;;;;12.60;8.90;;;;;;;21.71;61.33;97054.11;110347;1247;60492;-82
2022/07/06 00:41:14;;;;;;;10.20;8.30;;;;;;;21.66;61.86;97053.23;110162;1247;72336;-79
2022/07/06 00:43:55;;;;;;;10.50;8.50;;;;;;;21.62;62.04;97053.73;110222;1247;67687;-77
2022/07/06 00:46:33;;;;;;;8.80;7.90;;;;;;;21.56;62.42;97054.70;110067;1250;69260;-72
2022/07/06 00:49:02;;;;;;;9.30;8.20;;;;;;;21.48;62.70;97057.69;110068;1248;60570;-81
2022/07/06 00:51:37;;;;;;;10.20;8.10;;;;;;;21.45;62.72;97058.84;110226;1247;60535;-79
2022/07/06 00:54:08;;;;;;;9.10;7.70;;;;;;;21.40;63.12;97060.52;110119;1247;72371;-83
2022/07/06 00:56:38;;;;;;;9.40;7.30;;;;;;;21.36;63.22;97059.36;110387;1245;67895;-81
2022/07/06 00:59:07;;;;;;;10.40;8.60;;;;;;;21.33;63.59;97063.95;110315;1245;69427;-80
2022/07/06 01:01:37;;;;;;;9.40;8.20;;;;;;;21.31;63.84;97070.39;110245;1245;60555;-77
2022/07/06 01:04:07;;;;;;;10.20;8.70;;;;;;;21.29;64.21;97072.99;110292;1247;60490;-73
2022/07/06 01:06:38;;;;;;;11.40;8.50;;;;;;;21.21;64.20;97078.46;110298;1246;71602;-79
2022/07/06 01:09:09;;;;;;;13.40;8.70;;;;;;;21.17;64.60;97087.33;110005;1248;69060;-79
2022/07/06 01:11:40;;;;;;;8.60;7.50;;;;;;;21.16;65.11;97088.77;110246;1247;69358;-79
2022/07/06 01:14:14;;;;;;;9.10;8.20;;;;;;;21.09;65.45;97096.23;110368;1247;60569;-80
2022/07/06 01:16:44;;;;;;;9.00;8.10;;;;;;;21.03;65.78;97095.73;110235;1247;60484;-76
2022/07/06 01:19:15;;;;;;;11.70;8.30;;;;;;;20.99;66.06;97100.71;110127;1247;72329;-80
2022/07/06 01:21:46;;;;;;;9.20;8.10;;;;;;;20.96;66.35;97104.30;110243;1247;67802;-82
2022/07/06 01:24:20;;;;;;;10.90;7.60;;;;;;;20.89;66.94;97115.87;110214;1247;69378;-81
2022/07/06 01:26:52;;;;;;;8.80;8.00;;;;;;;20.83;67.20;97124.40;110347;1246;60512;-82
2022/07/06 01:29:23;;;;;;;8.70;7.40;;;;;;;20.82;67.29;97129.02;110330;1247;60418;-81
2022/07/06 01:31:53;;;;;;;11.20;7.70;;;;;;;20.79;67.60;97134.60;110315;1247;70629;-80
2022/07/06 01:34:25;;;;;;;9.90;7.50;;;;;;;20.70;68.30;97138.48;110320;1247;67779;-84
2022/07/06 01:36:55;;;;;;;9.40;7.50;;;;;;;20.66;68.72;97154.23;110150;1247;69474;-82
2022/07/06 01:39:25;;;;;;;7.60;6.70;;;;;;;20.57;68.88;97160.75;110095;1247;60567;-82
2022/07/06 01:41:55;;;;;;;8.40;6.90;;;;;;;20.55;69.18;97163.77;110269;1247;60500;-83
2022/07/06 01:44:25;;;;;;;8.20;7.40;;;;;;;20.57;69.36;97169.05;110180;1247;71547;-83
2022/07/06 01:46:55;;;;;;;6.90;6.20;;;;;;;20.48;69.83;97162.29;110263;1247;68557;-80
2022/07/06 01:49:25;;;;;;;7.90;6.50;;;;;;;20.51;69.55;97161.13;110146;1247;69398;-78
2022/07/06 01:51:55;;;;;;;6.50;5.80;;;;;;;20.44;69.89;97164.39;109984;1247;60618;-79
2022/07/06 01:54:26;;;;;;;6.50;5.30;;;;;;;20.41;70.03;97167.38;110293;1247;60507;-78
2022/07/06 01:56:56;;;;;;;6.80;5.80;;;;;;;20.43;69.92;97172.51;110020;1247;71279;-75
2022/07/06 01:59:27;;;;;;;7.60;6.10;;;;;;;20.43;69.94;97172.27;110188;1247;68539;-78
2022/07/06 02:01:59;;;;;;;5.40;4.80;;;;;;;20.37;70.18;97174.64;110140;1247;68606;-78
2022/07/06 02:04:30;;;;;;;6.30;5.10;;;;;;;20.42;69.67;97185.75;110380;1247;60501;-77
2022/07/06 02:07:01;;;;;;;7.80;5.10;;;;;;;20.45;69.36;97180.74;110313;1246;60609;-76
2022/07/06 02:09:32;;;;;;;5.90;4.10;;;;;;;20.45;69.40;97183.96;110050;1247;71555;-76
2022/07/06 02:12:03;;;;;;;6.00;4.80;;;;;;;20.46;69.27;97190.20;110312;1247;68603;-76
2022/07/06 02:14:35;;;;;;;4.70;3.80;;;;;;;20.49;68.90;97190.98;110178;1247;69551;-75
2022/07/06 02:17:05;;;;;;;4.90;4.00;;;;;;;20.51;68.40;97196.85;110416;1247;60582;-76
2022/07/06 02:19:36;;;;;;;4.80;3.90;;;;;;;20.51;68.02;97198.97;110162;1247;60475;-77
2022/07/06 02:22:08;;;;;;;4.50;3.70;;;;;;;20.51;67.24;97209.45;110283;1245;71569;-73
2022/07/06 02:24:38;;;;;;;4.10;3.50;;;;;;;20.41;67.52;97204.98;110067;1247;68444;-74
2022/07/06 02:27:10;;;;;;;5.40;3.70;;;;;;;20.32;67.53;97202.55;110175;1247;67469;-75
2022/07/06 02:29:40;;;;;;;5.30;4.40;;;;;;;20.24;67.98;97204.43;110129;1247;60474;-75
2022/07/06 02:32:10;;;;;;;5.60;4.20;;;;;;;20.12;68.40;97203.38;110236;1247;60500;-75
2022/07/06 02:34:40;;;;;;;4.80;4.20;;;;;;;19.97;69.27;97204.89;110063;1247;71392;-74
2022/07/06 02:37:10;;;;;;;5.60;4.10;;;;;;;19.90;69.57;97200.41;110002;1247;68629;-75
2022/07/06 02:39:41;;;;;;;6.10;3.70;;;;;;;19.77;70.40;97200.38;110264;1247;69329;-75
2022/07/06 02:42:11;;;;;;;5.20;4.30;;;;;;;19.67;70.80;97203.50;110271;1247;60590;-75
2022/07/06 02:44:42;;;;;;;6.00;4.30;;;;;;;19.54;71.14;97207.94;110188;1247;60554;-74
2022/07/06 02:47:12;;;;;;;6.50;4.10;;;;;;;19.52;71.36;97206.72;110258;1247;72400;-75
2022/07/06 02:49:42;;;;;;;7.10;4.60;;;;;;;19.52;71.33;97211.55;110240;1247;67720;-74
2022/07/06 02:52:12;;;;;;;;;;;;;;;19.39;71.75;97211.20;110227;1247;68847;-74
2022/07/06 02:54:42;;;;;;;6.40;4.70;;;;;;;19.27;72.29;97202.67;110115;1247;60585;-75
2022/07/06 02:57:12;;;;;;;6.70;5.20;;;;;;;19.20;72.70;97202.77;110260;1247;60482;-74
2022/07/06 02:59:44;;;;;;;6.60;4.70;;;;;;;19.12;73.33;97212.43;110298;1247;71541;-75
2022/07/06 03:02:14;;;;;;;6.20;4.50;;;;;;;18.85;74.89;97209.08;110177;1247;68059;-75
2022/07/06 03:04:45;;;;;;;5.30;4.70;;;;;;;18.83;74.89;97198.14;109997;1247;68622;-74
2022/07/06 03:07:15;;;;;;;5.00;4.40;;;;;;;18.86;74.60;97200.66;109986;1247;60549;-74
2022/07/06 03:09:45;;;;;;;4.90;4.40;;;;;;;18.92;74.35;97189.50;110248;1247;60489;-74
2022/07/06 03:12:15;;;;;;;;;;;;;;;18.97;73.98;97183.61;110128;1247;72154;-75
2022/07/06 03:14:47;;;;;;;5.50;4.20;;;;;;;18.99;73.71;97177.04;110077;1248;67805;-76
2022/07/06 03:17:17;;;;;;;5.30;4.50;;;;;;;19.03;73.56;97173.16;110198;1247;69427;-75
2022/07/06 03:19:50;;;;;;;4.70;4.30;;;;;;;19.09;73.13;97167.91;109947;1250;60539;-73
2022/07/06 03:22:20;;;;;;;5.20;3.90;;;;;;;19.15;72.74;97168.51;110213;1246;60445;-73
2022/07/06 03:24:50;;;;;;;5.00;3.80;;;;;;;19.21;72.31;97168.02;110249;1247;72406;-73
2022/07/06 03:27:20;;;;;;;4.30;3.70;;;;;;;19.27;71.91;97171.05;110139;1247;68708;-74
2022/07/06 03:29:49;;;;;;;4.70;4.10;;;;;;;19.33;71.82;97179.16;110202;1247;68612;-73
2022/07/06 03:32:19;;;;;;;5.50;4.70;;;;;;;19.39;71.78;97189.91;110006;1247;60532;-73
2022/07/06 03:34:49;;;;;;;5.30;4.40;;;;;;;19.41;71.78;97193.74;110193;1247;60551;-74
2022/07/06 03:37:20;;;;;;;5.60;4.50;;;;;;;19.42;71.44;97192.35;110138;1247;70751;-74
2022/07/06 03:39:49;;;;;;;6.20;4.20;;;;;;;19.45;71.33;97196.03;110223;1247;67596;-74
2022/07/06 03:42:19;;;;;;;4.80;4.00;;;;;;;19.49;71.28;97200.04;110297;1247;68710;-74
2022/07/06 03:44:50;;;;;;;5.20;4.00;;;;;;;19.54;71.06;97202.46;110081;1248;59934;-75
2022/07/06 03:47:20;;;;;;;5.10;4.60;;;;;;;19.57;71.55;97195.55;110263;1247;60418;-75
2022/07/06 03:49:51;;;;;;;6.60;4.80;;;;;;;19.61;71.66;97187.76;110170;1247;72169;-75
2022/07/06 03:52:21;;;;;;;5.10;4.60;;;;;;;19.66;71.42;97188.58;110101;1247;67778;-75
2022/07/06 03:54:55;;;;;;;5.10;4.60;;;;;;;19.69;71.74;97192.52;110115;1247;69350;-73
2022/07/06 03:57:29;;;;;;;5.70;4.90;;;;;;;19.71;71.72;97203.04;109920;1248;60561;-74
2022/07/06 04:00:02;;;;;;;5.50;5.00;;;;;;;19.71;71.40;97212.59;110155;1247;60983;-74
2022/07/06 04:02:42;;;;;;;6.10;4.80;;;;;;;19.70;71.82;97213.20;110103;1248;71566;-74
2022/07/06 04:05:21;;;;;;;5.30;4.80;;;;;;;19.75;71.75;97207.85;110282;1247;67683;-74
2022/07/06 04:07:51;;;;;;;5.60;5.00;;;;;;;19.78;71.95;97204.98;110206;1247;68449;-74
2022/07/06 04:10:23;;;;;;;4.50;4.10;;;;;;;19.83;71.65;97214.77;109936;1247;60555;-74
2022/07/06 04:12:54;;;;;;;5.60;4.60;;;;;;;19.84;72.10;97230.35;110205;1247;60432;-75
2022/07/06 04:15:24;;;;;;;5.30;4.20;;;;;;;19.87;72.60;97230.45;110245;1247;72159;-74
2022/07/06 04:17:54;;;;;;;;;;;;;;;19.92;71.93;97236.08;109960;1248;68623;-74
2022/07/06 04:20:28;;;;;;;5.20;3.60;;;;;;;19.95;71.67;97241.67;110307;1247;68520;-75
2022/07/06 04:22:58;;;;;;;5.50;4.90;;;;;;;20.00;70.75;97243.59;110341;1247;60579;-75
2022/07/06 04:25:27;;;;;;;6.60;5.70;;;;;;;19.97;71.43;97249.41;110060;1248;60505;-76
2022/07/06 04:27:59;;;;;;;7.10;5.50;;;;;;;19.94;71.80;97256.33;109996;1247;72288;-73
2022/07/06 04:30:29;;;;;;;6.40;5.10;;;;;;;19.81;72.21;97255.63;109999;1247;68998;-73
2022/07/06 04:32:59;;;;;;;8.00;5.20;;;;;;;19.71;72.68;97255.95;109831;1247;67954;-73
2022/07/06 04:35:30;;;;;;;7.30;5.50;;;;;;;19.62;73.01;97263.42;110103;1248;60471;-71
2022/07/06 04:37:59;;;;;;;;;;;;;;;19.55;73.30;97258.36;110044;1247;60414;-73
2022/07/06 04:40:29;;;;;;;6.80;6.00;;;;;;;19.44;73.44;97260.82;110030;1247;71402;-72
2022/07/06 04:43:00;;;;;;;6.40;5.40;;;;;;;19.40;73.54;97258.43;110115;1248;68634;-76
2022/07/06 04:45:30;;;;;;;8.10;5.50;;;;;;;19.33;73.93;97255.33;110029;1248;69043;-73
2022/07/06 04:48:00;;;;;;;8.70;5.50;;;;;;;19.27;73.94;97251.63;110115;1247;60604;-72
2022/07/06 04:50:29;;;;;;;5.70;4.50;;;;;;;19.23;74.19;97247.80;109996;1247;60519;-77
2022/07/06 04:53:08;;;;;;;6.60;5.20;;;;;;;19.26;73.79;97243.89;110295;1247;71512;-73
2022/07/06 04:55:37;;;;;;;8.70;5.40;;;;;;;19.28;74.20;97241.53;110154;1247;67816;-72
2022/07/06 04:58:07;;;;;;;6.90;6.20;;;;;;;19.31;74.61;97241.45;109920;1246;69563;-72
2022/07/06 05:00:36;;;;;;;;;;;;;;;19.34;74.96;97235.08;110309;1247;60430;-71
2022/07/06 05:03:06;;;;;;;5.50;4.50;;;;;;;19.44;75.09;97230.40;110275;1247;60571;-72
2022/07/06 05:05:35;;;;;;;5.50;4.50;;;;;;;19.57;74.56;97224.39;110068;1247;72625;-74
2022/07/06 05:08:06;;;;;;;5.80;4.50;;;;;;;19.70;73.70;97224.33;110257;1245;68887;-71
2022/07/06 05:10:36;;;;;;;6.10;4.60;;;;;;;19.82;72.81;97223.77;110173;1247;67654;-73
2022/07/06 05:13:05;;;;;;;6.20;4.50;;;;;;;19.91;73.00;97226.73;110302;1247;60450;-74
2022/07/06 05:15:34;;;;;;;;;;;;;;;20.02;72.38;97225.35;110247;1247;60465;-73
2022/07/06 05:18:04;;;;;;;5.80;4.40;;;;;;;20.13;73.17;97225.80;110244;1247;73346;-74
2022/07/06 05:20:36;;;;;;;5.60;4.70;;;;;;;20.25;72.36;97223.89;110255;1247;68077;-74
2022/07/06 05:23:06;;;;;;;6.90;4.70;;;;;;;20.41;71.55;97229.98;110087;1247;69412;-72
2022/07/06 05:25:36;;;;;;;5.60;4.60;;;;;;;20.54;70.75;97232.80;110068;1246;60539;-72
2022/07/06 05:28:06;;;;;;;5.20;4.30;;;;;;;20.67;71.09;97230.44;110303;1246;60500;-72
2022/07/06 05:30:35;;;;;;;5.60;4.80;;;;;;;20.76;70.35;97225.80;110017;1246;72151;-71
2022/07/06 05:33:04;;;;;;;4.90;4.40;;;;;;;20.75;69.87;97224.16;109959;1247;68147;-77
2022/07/06 05:35:34;;;;;;;5.70;4.40;;;;;;;20.79;70.63;97220.06;109867;1250;67819;-74
2022/07/06 05:38:24;;;;;;;6.10;4.60;;;;;;;20.88;70.99;97217.30;110222;1247;60514;-79
2022/07/06 05:40:55;;;;;;;9.80;4.20;;;;;;;20.96;70.49;97217.86;109995;1247;60483;-75
2022/07/06 05:43:25;;;;;;;5.70;4.70;;;;;;;20.99;70.40;97213.16;110268;1246;71532;-74
2022/07/06 05:45:55;;;;;;;5.60;4.80;;;;;;;20.99;70.71;97217.83;110022;1247;67795;-77
2022/07/06 05:51:15;;;;;;;4.10;3.70;;;;;;;21.01;70.33;97214.38;110177;1247;60593;-80
2022/07/06 05:53:44;;;;;;;4.80;4.10;;;;;;;21.04;69.67;97222.11;110009;1247;60470;-75
2022/07/06 05:56:13;;;;;;;7.20;5.20;;;;;;;21.06;70.18;97229.20;110161;1247;72039;-73
2022/07/06 05:58:43;;;;;;;5.30;4.60;;;;;;;21.00;70.87;97231.25;110152;1247;68607;-78
2022/07/06 06:01:12;;;;;;;7.50;4.30;;;;;;;20.92;70.90;97233.70;110365;1246;68731;-77
2022/07/06 06:03:43;;;;;;;5.30;4.50;;;;;;;21.03;70.04;97237.51;110626;1247;60946;-77
2022/07/06 06:06:12;;;;;;;4.90;4.40;;;;;;;21.10;69.83;97242.08;109941;1248;60545;-72
2022/07/06 06:08:42;;;;;;;5.10;4.40;;;;;;;21.16;69.56;97241.48;110168;1247;71386;-81
2022/07/06 06:11:12;;;;;;;6.80;5.00;;;;;;;21.16;69.84;97240.92;109957;1247;67596;-83
2022/07/06 06:13:41;;;;;;;6.30;4.50;;;;;;;21.18;69.17;97240.02;110232;1247;68674;-79
2022/07/06 06:16:11;;;;;;;8.50;6.20;;;;;;;21.22;69.05;97239.54;110172;1247;60550;-86
2022/07/06 06:18:41;;;;;;;7.60;5.70;;;;;;;21.21;68.93;97236.98;110168;1249;60626;-84
2022/07/06 06:21:10;;;;;;;6.40;5.70;;;;;;;21.26;69.67;97238.66;110313;1246;72612;-86
2022/07/06 06:23:41;;;;;;;6.80;5.50;;;;;;;21.32;70.02;97241.35;110241;1247;68574;-81
2022/07/06 06:26:11;;;;;;;6.20;5.50;;;;;;;21.43;69.74;97243.34;110304;1247;69440;-81
2022/07/06 06:28:41;;;;;;;5.50;4.90;;;;;;;21.47;69.15;97242.17;110332;1247;60489;-83
2022/07/06 06:31:10;;;;;;;5.60;5.00;;;;;;;21.44;68.51;97240.38;110243;1247;60424;-82
2022/07/06 06:33:39;;;;;;;5.30;4.80;;;;;;;21.42;68.54;97238.09;110412;1247;73068;-85
2022/07/06 06:36:08;;;;;;;8.00;5.60;;;;;;;21.48;68.62;97239.73;110368;1247;67711;-87
2022/07/06 06:38:38;;;;;;;5.50;5.00;;;;;;;21.39;69.93;97241.01;110678;1246;67836;-86
2022/07/06 06:41:08;;;;;;;7.00;4.80;;;;;;;21.38;70.13;97245.73;110146;1247;60535;-84
2022/07/06 06:43:38;;;;;;;7.10;5.50;;;;;;;21.36;69.68;97246.50;110247;1247;60502;-81
2022/07/06 06:46:14;;;;;;;6.80;6.10;;;;;;;21.21;69.95;97250.79;110209;1247;70971;-82
2022/07/06 06:48:43;;;;;;;5.70;5.10;;;;;;;20.89;70.86;97251.70;110415;1247;68684;-78
2022/07/06 06:51:12;;;;;;;6.20;5.60;;;;;;;20.87;70.28;97254.80;110305;1247;68092;-78
2022/07/06 06:53:41;;;;;;;5.70;5.00;;;;;;;20.75;70.46;97256.20;110156;1247;60530;-78
2022/07/06 06:56:10;;;;;;;6.80;5.20;;;;;;;20.59;71.55;97257.77;110263;1247;60529;-78
2022/07/06 06:58:39;;;;;;;7.90;6.00;;;;;;;20.48;72.03;97253.13;109961;1247;72446;-76
2022/07/06 07:01:29;;;;;;;6.20;5.60;;;;;;;20.40;72.54;97257.06;110219;1247;68606;-78
2022/07/06 07:03:58;;;;;;;6.30;5.40;;;;;;;20.38;72.50;97253.53;110236;1247;69435;-79
2022/07/06 07:06:27;;;;;;;6.90;6.20;;;;;;;20.35;73.07;97251.40;110241;1247;60569;-77
2022/07/06 07:08:56;;;;;;;5.50;5.00;;;;;;;20.32;73.58;97254.23;110039;1247;60510;-79
2022/07/06 07:11:25;;;;;;;7.00;5.90;;;;;;;20.26;73.57;97256.70;109988;1247;72384;-80
2022/07/06 07:13:54;;;;;;;5.50;4.80;;;;;;;20.20;73.69;97256.54;110241;1247;68602;-79
2022/07/06 07:16:24;;;;;;;6.30;5.60;;;;;;;20.20;73.55;97249.80;110247;1247;69655;-80
2022/07/06 07:18:53;;;;;;;6.70;5.20;;;;;;;20.20;73.50;97244.66;110175;1248;60555;-76
2022/07/06 07:21:22;;;;;;;6.10;4.70;;;;;;;20.23;73.52;97241.79;110282;1247;60567;-80
2022/07/06 07:23:51;;;;;;;5.80;5.10;;;;;;;20.30;73.29;97243.10;110158;1247;72465;-78
2022/07/06 07:26:20;;;;;;;6.60;5.80;;;;;;;20.36;73.65;97243.98;110208;1247;68630;-79
2022/07/06 07:28:49;;;;;;;6.00;5.40;;;;;;;20.36;74.20;97248.80;109731;1247;601791;-78
2022/07/06 07:31:18;;;;;;;6.70;5.90;;;;;;;20.23;75.15;97252.61;109999;1250;60463;-80
2022/07/06 07:33:47;;;;;;;6.90;6.20;;;;;;;20.15;75.30;97254.98;110033;1248;60533;-76
2022/07/06 07:36:20;;;;;;;5.90;5.00;;;;;;;20.13;75.03;97257.35;110166;1247;72449;-78
2022/07/06 07:38:48;;;;;;;6.60;5.10;;;;;;;20.16;74.72;97257.92;110206;1247;68203;-79
2022/07/06 07:41:17;;;;;;;6.50;5.10;;;;;;;20.20;74.25;97258.95;110213;1247;69591;-78
2022/07/06 07:43:46;;;;;;;5.60;5.00;;;;;;;20.26;73.91;97256.84;110165;1247;60494;-78
2022/07/06 07:46:19;;;;;;;6.60;4.50;;;;;;;20.24;73.90;97256.08;110221;1247;60504;-78
2022/07/06 07:48:48;;;;;;;5.20;4.60;;;;;;;20.24;74.15;97252.89;110188;1247;71564;-80
2022/07/06 07:51:18;;;;;;;5.50;4.50;;;;;;;20.29;74.23;97251.73;110132;1247;68811;-77
2022/07/06 07:53:47;;;;;;;6.80;6.00;;;;;;;20.28;74.75;97253.59;110171;1247;69490;-80
2022/07/06 07:56:16;;;;;;;5.70;5.20;;;;;;;20.26;75.26;97252.59;110186;1247;60542;-79
2022/07/06 07:58:48;;;;;;;5.50;5.00;;;;;;;20.24;76.12;97250.41;110564;1247;60506;-75
2022/07/06 08:01:19;;;;;;;6.10;5.40;;;;;;;20.24;76.04;97249.02;110174;1247;72431;-80
2022/07/06 08:03:48;;;;;;;6.30;5.20;;;;;;;20.21;76.20;97245.59;110204;1247;68279;-79
2022/07/06 08:06:17;;;;;;;8.10;6.20;;;;;;;20.17;76.01;97243.89;110051;1247;69877;-79
2022/07/06 08:08:46;;;;;;;6.70;5.30;;;;;;;20.16;76.33;97247.32;110195;1247;60531;-79
2022/07/06 08:11:15;;;;;;;6.10;5.30;;;;;;;20.14;75.74;97247.48;110169;1247;60418;-76
2022/07/06 08:13:47;;;;;;;4.80;4.30;;;;;;;20.16;77.40;97252.95;110333;1247;72949;-78
2022/07/06 08:16:16;;;;;;;7.20;5.60;;;;;;;20.21;77.42;97252.45;110243;1247;67956;-78
2022/07/06 08:18:45;;;;;;;4.90;4.10;;;;;;;20.26;77.18;97252.85;110175;1248;70171;-78
2022/07/06 08:21:14;;;;;;;6.00;5.30;;;;;;;20.30;76.92;97253.96;110161;1247;60895;-80
2022/07/06 08:23:55;;;;;;;5.10;4.60;;;;;;;20.32;76.77;97257.35;110185;1247;60441;-78
2022/07/06 08:26:23;;;;;;;7.80;5.20;;;;;;;20.32;76.36;97255.98;110185;1247;72398;-79
2022/07/06 08:28:52;;;;;;;5.90;4.50;;;;;;;20.31;76.67;97258.30;110187;1247;67783;-78
2022/07/06 08:31:21;;;;;;;5.60;4.50;;;;;;;20.30;76.72;97261.13;110275;1247;69265;-80
2022/07/06 08:34:10;;;;;;;5.80;4.50;;;;;;;20.36;76.53;97258.92;110235;1247;60619;-80
2022/07/06 08:36:39;;;;;;;4.90;4.20;;;;;;;20.38;76.24;97261.53;110303;1247;60473;-76
2022/07/06 08:39:09;;;;;;;5.30;4.80;;;;;;;20.40;76.01;97262.71;110204;1247;72363;-79
2022/07/06 08:41:41;;;;;;;4.80;4.30;;;;;;;20.39;76.07;97267.60;110209;1247;68018;-77
2022/07/06 08:44:11;;;;;;;5.50;4.30;;;;;;;20.35;76.96;97268.08;110208;1247;69477;-81
2022/07/06 08:46:40;;;;;;;4.80;4.30;;;;;;;20.31;77.34;97270.30;110199;1247;60586;-77
2022/07/06 08:49:13;;;;;;;5.90;4.50;;;;;;;20.30;76.84;97270.02;110235;1247;60542;-80
2022/07/06 08:51:44;;;;;;;5.40;4.40;;;;;;;20.29;77.26;97274.36;109990;1247;72367;-78
2022/07/06 08:54:14;;;;;;;5.10;4.20;;;;;;;20.30;76.92;97272.37;110310;1247;67911;-77
2022/07/06 08:56:43;;;;;;;5.20;4.20;;;;;;;20.32;78.15;97265.55;110304;1247;68662;-79
2022/07/06 08:59:16;;;;;;;5.30;4.60;;;;;;;20.39;77.02;97265.11;110393;1246;60555;-76
2022/07/06 09:01:47;;;;;;;6.00;5.40;;;;;;;20.43;77.05;97268.10;110301;1247;60980;-79
2022/07/06 09:04:17;;;;;;;6.20;5.10;;;;;;;20.45;76.61;97269.38;110259;1247;72175;-78
2022/07/06 09:06:48;;;;;;;5.30;4.80;;;;;;;20.46;77.08;97267.55;110293;1247;68639;-75
2022/07/06 09:09:23;;;;;;;5.00;4.20;;;;;;;20.47;76.56;97272.20;110225;1247;70115;-79
2022/07/06 09:11:52;;;;;;;5.00;4.50;;;;;;;20.47;76.01;97271.80;110186;1247;60557;-77
2022/07/06 09:14:21;;;;;;;4.70;4.10;;;;;;;20.51;76.01;97271.44;110230;1247;60485;-75
2022/07/06 09:17:03;;;;;;;6.30;4.80;;;;;;;20.59;77.61;97272.27;110275;1247;72460;-77
2022/07/06 09:19:34;;;;;;;4.90;4.40;;;;;;;20.64;76.63;97274.11;110374;1245;68834;-75
2022/07/06 09:22:05;;;;;;;5.20;4.30;;;;;;;20.60;75.89;97269.67;109972;1247;68700;-76
2022/07/06 09:24:42;;;;;;;4.90;4.30;;;;;;;20.65;76.30;97266.61;110379;1246;60541;-76
2022/07/06 09:27:17;;;;;;;4.70;4.00;;;;;;;20.72;75.59;97270.16;110300;1247;60526;-79
2022/07/06 09:29:47;;;;;;;5.40;4.20;;;;;;;20.75;76.57;97273.77;110431;1246;71687;-77
2022/07/06 09:32:20;;;;;;;4.60;4.10;;;;;;;20.80;75.97;97277.74;110160;1247;68572;-78
2022/07/06 09:34:49;;;;;;;5.20;3.60;;;;;;;20.79;75.15;97277.08;110347;1246;69430;-80
2022/07/06 09:37:17;;;;;;;4.40;3.70;;;;;;;20.82;74.14;97276.06;110145;1247;60542;-78
2022/07/06 09:39:53;;;;;;;4.50;3.60;;;;;;;20.84;75.28;97271.73;110058;1247;60462;-77
2022/07/06 09:42:26;;;;;;;5.20;4.30;;;;;;;20.92;75.01;97272.65;110331;1247;71583;-77
2022/07/06 09:44:57;;;;;;;4.00;3.60;;;;;;;20.97;75.07;97275.63;110489;1247;68630;-76
2022/07/06 09:47:26;;;;;;;4.90;4.20;;;;;;;21.03;74.63;97273.58;110246;1247;69445;-74
2022/07/06 09:49:56;;;;;;;4.50;3.80;;;;;;;21.07;75.38;97273.55;110061;1248;60484;-75
2022/07/06 09:52:25;;;;;;;4.40;3.70;;;;;;;21.12;74.60;97271.09;110074;1247;60507;-75
2022/07/06 09:54:54;;;;;;;3.90;3.40;;;;;;;21.23;74.05;97268.77;110062;1248;72056;-74
2022/07/06 09:57:24;;;;;;;4.30;3.80;;;;;;;21.40;73.42;97263.95;110202;1247;68552;-75
2022/07/06 09:59:55;;;;;;;4.70;4.30;;;;;;;21.60;72.27;97267.29;110201;1247;68628;-74
2022/07/06 10:02:26;;;;;;;5.00;4.20;;;;;;;21.72;70.69;97265.75;110216;1246;60583;-76
2022/07/06 10:04:56;;;;;;;4.50;4.10;;;;;;;21.95;70.37;97263.36;110102;1247;60873;-74
2022/07/06 10:07:26;;;;;;;4.60;4.20;;;;;;;22.09;69.41;97261.94;110223;1247;73011;-74
2022/07/06 10:09:56;;;;;;;5.00;4.50;;;;;;;22.22;69.15;97256.45;110056;1248;67893;-73
2022/07/06 10:12:25;;;;;;;;;;;;;;;22.62;67.71;97253.68;110299;1247;68755;-73
2022/07/06 10:14:54;;;;;;;3.70;3.40;;;;;;;23.02;67.82;97249.77;110268;1247;60548;-75
2022/07/06 10:17:24;;;;;;;4.40;4.00;;;;;;;23.39;64.01;97251.29;110318;1245;60481;-75
2022/07/06 10:19:55;;;;;;;3.90;3.50;;;;;;;23.78;65.64;97250.50;110301;1247;71588;-75
2022/07/06 10:22:27;;;;;;;3.90;3.50;;;;;;;24.00;62.09;97250.34;110308;1247;67973;-76
2022/07/06 10:24:59;;;;;;;5.00;4.10;;;;;;;24.08;61.68;97248.89;110283;1246;68713;-74
2022/07/06 10:27:29;;;;;;;5.10;4.40;;;;;;;24.06;60.49;97248.67;110339;1247;60481;-75
2022/07/06 10:29:58;;;;;;;5.00;3.80;;;;;;;24.16;61.25;97252.57;110332;1247;59643;-74
2022/07/06 10:32:28;;;;;;;4.40;3.90;;;;;;;24.14;60.70;97251.20;110269;1247;72053;-74
2022/07/06 10:34:57;;;;;;;4.80;3.90;;;;;;;24.13;61.46;97252.52;109959;1247;67811;-74
2022/07/06 10:37:28;;;;;;;4.60;4.00;;;;;;;24.07;63.05;97250.80;110302;1247;69462;-75
2022/07/06 10:42:46;;;;;;;4.00;3.40;;;;;;;23.99;62.20;97248.81;110193;1247;60523;-75
2022/07/06 10:45:40;;;;;;;3.90;3.50;;;;;;;23.99;62.79;97249.06;110328;1245;71384;-74
2022/07/06 10:48:12;;;;;;;3.80;3.30;;;;;;;23.90;63.31;97249.80;110289;1247;68778;-76
2022/07/06 10:50:46;;;;;;;4.30;3.70;;;;;;;23.81;63.84;97242.23;110228;1247;69410;-74
2022/07/06 10:53:21;;;;;;;4.00;3.60;;;;;;;23.66;63.76;97247.27;110183;1247;60570;-75
2022/07/06 10:55:52;;;;;;;4.80;3.80;;;;;;;23.44;64.30;97245.95;110019;1247;60527;-74
2022/07/06 10:58:51;;;;;;;4.40;3.90;;;;;;;23.29;64.45;97247.70;110293;1247;72478;-76
2022/07/06 11:01:23;;;;;;;4.40;4.00;;;;;;;23.07;65.21;97249.12;109624;1254;68007;-75
2022/07/06 11:03:58;;;;;;;4.80;3.40;;;;;;;22.90;65.68;97247.63;109482;1256;70077;-74
2022/07/06 11:06:33;;;;;;;5.80;3.50;;;;;;;22.75;65.84;97249.17;109633;1255;60537;-73
2022/07/06 11:09:08;;;;;;;4.30;3.70;;;;;;;22.62;66.57;97248.48;109572;1255;60562;-74
2022/07/06 11:11:44;;;;;;;4.30;3.80;;;;;;;22.52;66.45;97247.41;109631;1254;72945;-73
2022/07/06 11:14:18;;;;;;;5.00;4.50;;;;;;;22.44;67.08;97245.48;109563;1255;68005;-74
2022/07/06 11:16:47;;;;;;;3.90;3.20;;;;;;;22.33;68.25;97245.85;109656;1254;68978;-73
2022/07/06 11:19:23;;;;;;;4.30;3.90;;;;;;;22.31;68.13;97245.61;109430;1256;60669;-76
2022/07/06 11:22:08;;;;;;;4.90;4.30;;;;;;;22.22;70.29;97244.21;109609;1254;60463;-74
2022/07/06 11:24:41;;;;;;;5.10;4.60;;;;;;;22.23;70.00;97242.52;109570;1256;72713;-77
2022/07/06 11:27:10;;;;;;;5.60;5.00;;;;;;;22.20;71.06;97244.14;109445;1256;68623;-75
2022/07/06 11:29:39;;;;;;;5.30;4.80;;;;;;;22.16;71.29;97245.29;109607;1254;68909;-74
2022/07/06 11:32:11;;;;;;;;;;;;;;;22.12;71.84;97243.91;109491;1256;60513;-72
2022/07/06 11:34:43;;;;;;;4.80;4.00;;;;;;;22.11;71.08;97246.42;109635;1254;60516;-76
2022/07/06 11:37:15;;;;;;;4.60;4.10;;;;;;;22.11;70.96;97246.29;109609;1250;72986;-75
2022/07/06 11:39:45;;;;;;;5.20;4.70;;;;;;;22.12;70.86;97248.46;110268;1246;68543;-75
2022/07/06 11:42:17;;;;;;;5.40;4.20;;;;;;;22.03;71.82;97246.88;110023;1250;69255;-72
2022/07/06 11:44:49;;;;;;;4.90;4.40;;;;;;;21.99;70.89;97247.41;110010;1249;60492;-75
2022/07/06 11:47:20;;;;;;;5.10;4.60;;;;;;;21.89;71.44;97247.95;110010;1247;60485;-74
2022/07/06 11:49:52;;;;;;;4.30;3.70;;;;;;;21.76;72.18;97245.91;110279;1246;72473;-73